Time;durP1;ratioP1;P1;durP2;ratioP2;P2;SDS_P1;SDS_P2;PMS_P1;PMS_P2;Temp;Humidity;BMP_temperature;BMP_pressure;BME280_temperature;BME280_humidity;BME280_pressure;Samples;Min_cycle;Max_cycle;Signal;HPM_P1;HPM_P2
2022/06/18 04:32:19;;;;;;;;;8.25;8.25;;;;;27.09;40.47;101353.81;5010720;28;45517;-74
2022/06/18 04:34:44;;;;;;;;;8.25;8.00;;;;;27.10;40.35;101355.56;4997230;28;45470;-74
2022/06/18 04:37:10;;;;;;;;;10.75;10.50;;;;;27.08;40.09;101346.59;4997443;28;46878;-74
2022/06/18 04:39:35;;;;;;;;;9.75;8.25;;;;;27.11;40.65;101362.78;4996358;28;45238;-75
2022/06/18 04:42:00;;;;;;;;;10.50;9.25;;;;;27.08;40.03;101350.19;4996730;28;45374;-74
2022/06/18 04:44:25;;;;;;;;;7.00;7.00;;;;;27.05;39.98;101353.28;4996420;28;46357;-75
2022/06/18 04:46:51;;;;;;;;;8.00;8.00;;;;;27.14;40.50;101362.44;4996638;28;46211;-76
2022/06/18 04:49:16;;;;;;;;;8.00;7.75;;;;;27.15;40.24;101366.94;4978851;28;45397;-75
2022/06/18 04:51:41;;;;;;;;;9.25;9.25;;;;;27.10;40.36;101359.16;4996499;28;45283;-74
2022/06/18 04:54:07;;;;;;;;;8.50;8.50;;;;;27.10;40.67;101356.41;4995947;28;46992;-74
2022/06/18 04:56:32;;;;;;;;;7.00;7.00;;;;;27.18;40.38;101379.50;4995962;28;46173;-75
2022/06/18 04:58:58;;;;;;;;;10.75;9.50;;;;;27.18;40.61;101371.25;4996329;28;45310;-76
2022/06/18 05:01:30;;;;;;;;;9.00;8.25;;;;;27.20;40.22;101370.06;4996189;28;45319;-75
2022/06/18 05:03:55;;;;;;;;;7.00;7.00;;;;;27.15;40.45;101361.41;4978229;28;46614;-74
2022/06/18 05:06:21;;;;;;;;;10.25;7.00;;;;;27.25;40.08;101372.31;4977777;28;47324;-74
2022/06/18 05:08:46;;;;;;;;;7.50;7.50;;;;;27.20;40.48;101359.06;4978220;28;46314;-75
2022/06/18 05:11:11;;;;;;;;;10.00;8.00;;;;;27.22;40.59;101359.72;4996097;28;45500;-73
2022/06/18 05:13:37;;;;;;;;;6.00;6.00;;;;;27.18;40.39;101358.34;4996298;28;45362;-74
2022/06/18 05:16:02;;;;;;;;;8.25;8.00;;;;;27.22;40.46;101356.97;4995828;28;45366;-76
2022/06/18 05:18:33;;;;;;;;;9.75;8.75;;;;;27.30;39.88;101369.97;4996164;28;45237;-75
2022/06/18 05:20:58;;;;;;;;;9.75;8.00;;;;;27.29;40.13;101363.59;4996446;28;45479;-74
2022/06/18 05:23:24;;;;;;;;;8.50;8.50;;;;;27.35;40.14;101362.06;4995874;28;45463;-75
2022/06/18 05:25:54;;;;;;;;;8.75;7.75;;;;;27.39;40.23;101360.72;4995427;28;45626;-75
2022/06/18 05:28:20;;;;;;;;;10.50;8.50;;;;;27.38;39.97;101357.09;4995905;28;45404;-76
2022/06/18 05:30:45;;;;;;;;;8.25;7.50;;;;;27.38;39.79;101356.22;4996615;28;45397;-74
2022/06/18 05:33:11;;;;;;;;;10.50;9.50;;;;;27.42;39.43;101361.22;5019671;28;47857;-74
2022/06/18 05:35:40;;;;;;;;;7.75;7.75;;;;;27.42;39.40;101355.72;4999500;28;46087;-75
2022/06/18 05:38:06;;;;;;;;;6.50;6.50;;;;;27.42;40.15;101358.47;5015462;28;45322;-74
2022/06/18 05:40:31;;;;;;;;;9.00;8.25;;;;;27.39;39.95;101353.28;5016080;28;45334;-75
2022/06/18 05:42:58;;;;;;;;;9.25;9.25;;;;;27.42;40.17;101352.97;5015847;28;45686;-75
2022/06/18 05:45:23;;;;;;;;;11.75;9.75;;;;;27.43;40.03;101351.94;5015353;28;45296;-74
2022/06/18 05:47:49;;;;;;;;;8.00;8.00;;;;;27.41;40.65;101350.38;5015403;28;45339;-74
2022/06/18 05:50:17;;;;;;;;;11.50;9.75;;;;;27.40;40.45;101349.50;5015657;28;45475;-74
2022/06/18 05:52:43;;;;;;;;;8.75;8.75;;;;;27.40;40.10;101343.13;5015503;28;45351;-75
2022/06/18 05:55:09;;;;;;;;;7.00;7.00;;;;;27.34;40.72;101330.91;4996938;28;47034;-74
2022/06/18 05:57:45;;;;;;;;;11.50;9.50;;;;;27.40;40.62;101335.75;5015166;28;45359;-76
2022/06/18 06:00:15;;;;;;;;;9.50;9.50;;;;;27.48;40.54;101345.94;5015570;28;45238;-75
2022/06/18 06:02:40;;;;;;;;;7.75;7.75;;;;;27.51;40.32;101345.59;5015091;28;45299;-74
2022/06/18 06:05:06;;;;;;;;;13.75;11.50;;;;;27.48;40.59;101338.53;5014825;28;46068;-74
2022/06/18 06:07:31;;;;;;;;;7.50;6.25;;;;;27.48;40.48;101332.16;4997273;28;45322;-75
2022/06/18 06:12:41;;;;;;;;;8.50;8.50;;;;;27.55;40.21;101318.63;5014873;28;45533;-75
2022/06/18 06:15:07;;;;;;;;;8.00;8.00;;;;;27.48;40.93;101301.88;5014744;28;45930;-75
2022/06/18 06:17:32;;;;;;;;;12.00;10.00;;;;;27.60;40.53;101319.00;5014946;28;45315;-73
2022/06/18 06:20:18;;;;;;;;;13.00;10.00;;;;;27.61;40.30;101315.22;5015375;28;45415;-76
2022/06/18 06:22:44;;;;;;;;;9.00;9.00;;;;;27.61;40.38;101318.84;4997586;28;45273;-81
2022/06/18 06:25:10;;;;;;;;;12.00;10.25;;;;;27.60;40.67;101305.22;4997038;28;47380;-76
2022/06/18 06:27:35;;;;;;;;;10.50;7.75;;;;;27.73;40.86;101327.66;4996921;28;45364;-73
2022/06/18 06:30:01;;;;;;;;;11.50;11.00;;;;;27.77;39.89;101312.50;5014592;28;45181;-74
2022/06/18 06:32:26;;;;;;;;;10.00;10.00;;;;;27.74;39.63;101319.19;5023418;28;45488;-78
2022/06/18 06:34:51;;;;;;;;;17.25;15.00;;;;;27.79;40.69;101325.09;5016942;28;46157;-77
2022/06/18 06:37:17;;;;;;;;;10.75;10.75;;;;;27.80;40.75;101310.28;4998504;28;45262;-76
2022/06/18 06:39:43;;;;;;;;;9.75;7.50;;;;;27.85;39.94;101307.88;5015439;28;45665;-76
2022/06/18 06:42:08;;;;;;;;;13.75;10.75;;;;;27.90;39.49;101303.75;5014513;28;45402;-78
2022/06/18 06:44:34;;;;;;;;;12.50;10.50;;;;;27.92;40.02;101305.28;4997096;28;45492;-74
2022/06/18 06:46:59;;;;;;;;;12.00;9.00;;;;;28.00;39.63;101308.06;5014379;28;45435;-75
2022/06/18 06:49:25;;;;;;;;;11.25;10.25;;;;;28.07;39.93;101319.31;5014413;28;45316;-75
2022/06/18 06:51:53;;;;;;;;;10.75;9.00;;;;;28.14;39.57;101323.97;5014277;28;45334;-73
2022/06/18 06:54:19;;;;;;;;;11.00;9.50;;;;;28.15;40.04;101308.28;5013190;28;45491;-75
2022/06/18 06:59:28;;;;;;;;;8.75;8.00;;;;;28.30;38.73;101327.78;5013557;28;45422;-76
2022/06/18 07:01:53;;;;;;;;;8.75;8.75;;;;;28.27;38.72;101320.72;5014428;28;45631;-79
2022/06/18 07:04:19;;;;;;;;;11.00;10.50;;;;;28.38;39.37;101328.66;5013991;28;46136;-76
2022/06/18 07:06:44;;;;;;;;;11.00;11.00;;;;;28.41;39.70;101324.72;5013677;28;45451;-77
2022/06/18 07:09:09;;;;;;;;;9.25;8.25;;;;;28.42;38.57;101326.41;5014260;28;45429;-75
2022/06/18 07:11:37;;;;;;;;;9.75;9.50;;;;;28.35;38.34;101308.81;5014094;28;45269;-76
2022/06/18 07:14:03;;;;;;;;;9.75;9.75;;;;;28.48;37.47;101328.50;5014082;28;46099;-76
2022/06/18 07:16:29;;;;;;;;;10.50;10.25;;;;;28.55;38.33;101316.59;4996454;28;45721;-76
2022/06/18 07:18:56;;;;;;;;;12.50;10.00;;;;;28.55;37.74;101316.59;5014965;28;45273;-76
2022/06/18 07:21:22;;;;;;;;;12.50;10.75;;;;;28.61;38.83;101318.66;5016755;28;45527;-76
2022/06/18 07:23:48;;;;;;;;;12.00;11.00;;;;;28.65;38.42;101316.41;5017910;28;45385;-77
2022/06/18 07:26:18;;;;;;;;;12.25;8.75;;;;;28.63;38.93;101303.81;5017266;28;45307;-76
2022/06/18 07:28:43;;;;;;;;;8.25;8.25;;;;;28.78;38.36;101332.47;5017531;28;45333;-76
2022/06/18 07:31:21;;;;;;;;;10.75;9.50;;;;;28.78;38.01;101318.66;5021111;28;45977;-77
2022/06/18 07:33:46;;;;;;;;;11.25;11.25;;;;;28.81;38.07;101305.38;5020706;28;45361;-76
2022/06/18 07:36:12;;;;;;;;;2.25;2.25;;;;;28.92;38.35;101318.81;5020492;28;45426;-76
2022/06/18 07:38:38;;;;;;;;;9.00;9.00;;;;;28.94;38.33;101308.44;5017757;28;45350;-78
2022/06/18 07:41:04;;;;;;;;;16.75;14.25;;;;;29.02;37.71;101304.81;4999938;28;45832;-76
2022/06/18 07:43:38;;;;;;;;;11.50;11.50;;;;;29.04;38.07;101315.69;5018359;28;46598;-77
2022/06/18 07:46:06;;;;;;;;;13.75;12.00;;;;;29.07;37.85;101316.19;5017966;28;45388;-76
2022/06/18 07:48:32;;;;;;;;;10.75;10.75;;;;;29.11;37.88;101308.41;5017643;28;45464;-76
2022/06/18 07:50:58;;;;;;;;;11.00;9.75;;;;;29.10;39.03;101302.03;5016997;28;45598;-77
2022/06/18 07:53:25;;;;;;;;;11.75;11.75;;;;;29.13;39.04;101298.06;5016983;28;46065;-76
2022/06/18 07:55:51;;;;;;;;;13.25;9.50;;;;;29.21;37.89;101303.53;5016825;28;45334;-76
2022/06/18 07:58:17;;;;;;;;;14.00;11.25;;;;;29.25;37.15;101293.88;5017552;28;45282;-75
2022/06/18 08:00:43;;;;;;;;;14.25;10.50;;;;;29.31;37.98;101305.06;5017033;28;45356;-78
2022/06/18 08:03:11;;;;;;;;;8.00;8.00;;;;;29.28;37.92;101282.47;5016908;28;46316;-77
2022/06/18 08:05:37;;;;;;;;;8.00;8.00;;;;;29.37;37.06;101284.19;5016965;28;45406;-77
2022/06/18 08:08:03;;;;;;;;;13.00;10.25;;;;;29.48;38.00;101291.22;5017336;28;45502;-77
2022/06/18 08:10:30;;;;;;;;;13.25;11.50;;;;;29.52;38.47;101289.84;5016616;28;45447;-77
2022/06/18 08:12:55;;;;;;;;;11.75;11.25;;;;;29.56;38.33;101292.03;5016822;28;46135;-77
2022/06/18 08:15:21;;;;;;;;;14.50;11.00;;;;;29.62;37.58;101285.78;4999124;28;45365;-76
2022/06/18 08:17:46;;;;;;;;;13.75;10.00;;;;;29.67;37.92;101275.06;5015042;28;45589;-75
2022/06/18 08:20:11;;;;;;;;;12.50;12.50;;;;;29.72;36.74;101267.06;5022435;28;47901;-72
2022/06/18 08:22:41;;;;;;;;;11.50;11.50;;;;;29.78;36.01;101268.22;5018675;28;45384;-74
2022/06/18 08:25:10;;;;;;;;;11.00;11.00;;;;;29.79;36.56;101258.91;5019235;28;45470;-75
2022/06/18 08:27:36;;;;;;;;;12.75;9.50;;;;;29.89;36.52;101267.81;4996571;28;45679;-75
2022/06/18 08:30:03;;;;;;;;;11.75;9.25;;;;;29.96;36.62;101262.44;5016168;28;45402;-75
2022/06/18 08:32:29;;;;;;;;;10.75;10.25;;;;;30.01;36.54;101263.63;5007855;28;45420;-75
2022/06/18 08:34:54;;;;;;;;;13.00;13.00;;;;;30.09;36.56;101262.72;5017756;28;45330;-73
2022/06/18 08:37:20;;;;;;;;;13.00;13.00;;;;;30.12;36.26;101255.94;5017233;28;45453;-74
2022/06/18 08:39:45;;;;;;;;;10.75;10.50;;;;;30.21;36.37;101269.50;4998963;28;45348;-75
2022/06/18 08:42:10;;;;;;;;;12.25;10.50;;;;;30.27;35.31;101259.63;5016399;28;46284;-75
2022/06/18 08:44:44;;;;;;;;;12.00;11.25;;;;;30.27;35.31;101243.91;5016191;28;45281;-75
2022/06/18 08:47:35;;;;;;;;;10.25;9.75;;;;;30.33;35.90;101236.75;4998240;28;45374;-76
2022/06/18 08:50:19;;;;;;;;;12.50;10.00;;;;;30.42;35.28;101250.31;5015876;28;45328;-75
2022/06/18 08:53:03;;;;;;;;;14.25;11.50;;;;;30.50;35.21;101242.97;5015674;28;45351;-75
2022/06/18 08:55:34;;;;;;;;;11.00;10.25;;;;;30.56;34.83;101231.19;5015385;28;45237;-75
2022/06/18 08:58:25;;;;;;;;;8.75;8.75;;;;;30.62;34.82;101230.44;5015808;28;45555;-73
2022/06/18 09:01:05;;;;;;;;;9.25;9.25;;;;;30.66;33.90;101226.22;5015690;28;45688;-75
2022/06/18 09:04:02;;;;;;;;;8.00;7.75;;;;;30.61;33.79;101204.69;5015429;28;45490;-75
2022/06/18 09:06:49;;;;;;;;;9.00;7.50;;;;;30.80;33.21;101222.59;5015360;28;45241;-72
2022/06/18 09:09:40;;;;;;;;;12.75;10.50;;;;;30.86;33.20;101224.63;4998059;28;45476;-76
2022/06/18 09:12:32;;;;;;;;;10.00;8.25;;;;;30.96;32.16;101219.66;5007649;28;45682;-76
2022/06/18 09:15:06;;;;;;;;;11.75;10.25;;;;;30.99;31.97;101210.97;5016147;28;46254;-75
2022/06/18 09:17:42;;;;;;;;;10.00;10.00;;;;;30.95;31.88;101181.94;5015754;28;45383;-76
2022/06/18 09:20:17;;;;;;;;;9.75;8.50;;;;;31.17;32.49;101203.16;5015352;28;45470;-75
2022/06/18 09:22:58;;;;;;;;;11.25;11.00;;;;;31.24;31.32;101206.00;5015694;28;45364;-76
2022/06/18 09:25:30;;;;;;;;;8.00;8.00;;;;;31.32;31.10;101203.09;5015560;28;46535;-75
2022/06/18 09:28:08;;;;;;;;;9.00;9.00;;;;;31.36;30.39;101204.44;4997938;28;45468;-75
2022/06/18 09:30:40;;;;;;;;;10.25;10.25;;;;;31.40;31.58;101193.81;5015713;28;45388;-75
2022/06/18 09:33:15;;;;;;;;;8.50;8.50;;;;;31.48;31.19;101188.16;5007721;28;45311;-76
2022/06/18 09:35:44;;;;;;;;;9.00;8.00;;;;;31.56;31.38;101185.25;5016626;28;47082;-76
2022/06/18 09:38:29;;;;;;;;;11.75;10.25;;;;;31.65;31.61;101189.66;5015149;28;45339;-75
2022/06/18 09:40:58;;;;;;;;;10.50;10.50;;;;;31.68;30.47;101177.31;5015654;28;45293;-74
2022/06/18 09:43:57;;;;;;;;;9.75;9.75;;;;;31.79;30.22;101174.91;5014270;28;45502;-78
2022/06/18 09:46:25;;;;;;;;;8.25;7.50;;;;;31.84;30.67;101169.59;5015161;28;46102;-76
2022/06/18 09:48:50;;;;;;;;;9.50;9.50;;;;;31.91;28.07;101170.50;5015305;28;45526;-76
2022/06/18 09:51:31;;;;;;;;;11.25;8.75;;;;;31.98;29.45;101170.59;5015370;28;45337;-75
2022/06/18 09:54:04;;;;;;;;;12.00;10.00;;;;;31.98;28.95;101159.50;5015246;28;45366;-76
2022/06/18 09:56:35;;;;;;;;;12.25;10.25;;;;;32.04;27.83;101167.00;5014976;28;46183;-77
2022/06/18 09:59:12;;;;;;;;;8.75;8.75;;;;;32.06;28.17;101155.72;4997249;28;45528;-77
2022/06/18 10:01:52;;;;;;;;;9.50;8.00;;;;;32.11;28.60;101144.88;5015469;28;45459;-76
2022/06/18 10:07:18;;;;;;;;;8.50;8.50;;;;;32.08;29.06;101120.28;5014856;28;45753;-76
2022/06/18 10:09:47;;;;;;;;;9.25;8.50;;;;;32.27;28.70;101144.59;5014790;28;45454;-74
2022/06/18 10:12:18;;;;;;;;;9.00;9.00;;;;;32.33;29.01;101135.44;5015159;28;45431;-76
2022/06/18 10:14:44;;;;;;;;;9.25;7.25;;;;;32.42;28.61;101134.22;4996810;28;45335;-74
2022/06/18 10:17:31;;;;;;;;;7.75;7.00;;;;;32.47;27.53;101134.50;5013841;28;45423;-75
2022/06/18 10:20:15;;;;;;;;;11.00;9.75;;;;;32.48;27.63;101124.25;5014780;28;45318;-76
2022/06/18 10:23:05;;;;;;;;;9.00;8.00;;;;;32.52;27.32;101123.63;5015008;28;45353;-75
2022/06/18 10:25:42;;;;;;;;;8.75;7.50;;;;;32.58;27.35;101122.81;5014631;28;45514;-76
2022/06/18 10:28:13;;;;;;;;;13.00;12.00;;;;;32.60;27.16;101117.91;4996736;28;48479;-77
2022/06/18 10:30:44;;;;;;;;;11.50;10.00;;;;;32.62;27.35;101115.78;5014902;28;45352;-77
2022/06/18 10:33:09;;;;;;;;;8.25;8.25;;;;;32.68;27.94;101112.19;5007386;28;45380;-75
2022/06/18 10:35:47;;;;;;;;;7.00;7.00;;;;;32.69;28.06;101118.63;5015907;28;45671;-71
2022/06/18 10:38:15;;;;;;;;;12.00;9.00;;;;;32.67;27.48;101107.69;5011921;28;45588;-74
2022/06/18 10:40:49;;;;;;;;;9.50;8.50;;;;;32.71;27.47;101112.88;5013831;28;45535;-72
2022/06/18 10:43:30;;;;;;;;;11.50;9.50;;;;;32.76;28.01;101105.63;5013476;28;45424;-74
2022/06/18 10:46:08;;;;;;;;;10.75;10.75;;;;;32.80;27.71;101100.53;5014316;28;46012;-73
2022/06/18 10:48:34;;;;;;;;;10.00;10.00;;;;;32.85;27.02;101093.28;4997421;28;46127;-74
2022/06/18 10:51:01;;;;;;;;;11.00;9.00;;;;;32.85;27.45;101071.06;5014464;28;45206;-75
2022/06/18 10:53:33;;;;;;;;;9.75;9.00;;;;;32.99;26.79;101083.09;5014586;28;45369;-78
2022/06/18 10:56:05;;;;;;;;;8.00;8.00;;;;;33.08;26.30;101079.06;5013830;28;45486;-74
2022/06/18 10:58:31;;;;;;;;;7.75;7.00;;;;;33.16;25.11;101075.25;5013008;28;46169;-77
2022/06/18 11:01:01;;;;;;;;;7.25;7.25;;;;;33.20;25.16;101069.03;5014095;28;45491;-75
2022/06/18 11:03:30;;;;;;;;;10.00;9.00;;;;;33.21;25.01;101056.00;5011946;28;45961;-74
2022/06/18 11:05:57;;;;;;;;;7.50;7.50;;;;;33.36;25.39;101065.03;5014009;28;46050;-76
2022/06/18 11:08:31;;;;;;;;;9.75;9.75;;;;;33.36;25.47;101060.31;5013888;28;45458;-76
2022/06/18 11:11:01;;;;;;;;;10.00;8.00;;;;;33.38;25.04;101060.13;5013742;28;45332;-76
2022/06/18 11:13:35;;;;;;;;;11.75;9.50;;;;;33.45;25.90;101058.19;5013361;28;45512;-76
2022/06/18 11:16:25;;;;;;;;;11.00;9.75;;;;;33.53;26.29;101046.88;5012618;28;45423;-76
2022/06/18 11:18:58;;;;;;;;;11.25;10.00;;;;;33.65;25.73;101056.28;5003884;28;45483;-77
2022/06/18 11:21:32;;;;;;;;;9.50;9.50;;;;;33.75;25.83;101053.13;4996185;28;45374;-79
2022/06/18 11:24:05;;;;;;;;;10.00;8.00;;;;;33.84;25.97;101045.41;5014404;28;45538;-77
2022/06/18 11:26:30;;;;;;;;;9.25;8.50;;;;;33.88;25.82;101041.13;5014361;28;45652;-75
2022/06/18 11:29:01;;;;;;;;;9.25;9.25;;;;;33.96;26.04;101036.19;5013566;28;46155;-74
2022/06/18 11:31:33;;;;;;;;;10.50;9.00;;;;;33.96;25.18;101025.06;5001981;28;45281;-76
2022/06/18 11:34:06;;;;;;;;;8.50;7.25;;;;;34.05;24.81;101034.03;5000765;28;45372;-75
2022/06/18 11:36:45;;;;;;;;;11.75;10.50;;;;;34.06;24.66;101019.91;5013853;28;45394;-75
2022/06/18 11:39:22;;;;;;;;;4.75;4.75;;;;;34.18;24.59;101022.88;5012232;28;45670;-77
2022/06/18 11:41:51;;;;;;;;;8.00;7.00;;;;;34.23;24.97;101009.16;5015079;28;45387;-73
2022/06/18 11:44:33;;;;;;;;;13.25;7.25;;;;;34.31;25.37;101006.16;5012017;28;45692;-72
2022/06/18 11:47:02;;;;;;;;;11.00;8.00;;;;;34.40;24.64;101004.00;5011453;28;45225;-74
2022/06/18 11:49:37;;;;;;;;;9.25;8.00;;;;;34.44;24.66;101003.34;5011609;28;45957;-75
2022/06/18 11:52:17;;;;;;;;;7.75;7.25;;;;;34.48;24.62;100995.38;5016484;28;45456;-77
2022/06/18 11:55:21;;;;;;;;;9.75;8.25;;;;;34.53;24.35;100993.69;5018217;28;45415;-74
2022/06/18 11:57:57;;;;;;;;;9.00;7.00;;;;;34.59;24.58;100982.72;5018316;28;45419;-74
2022/06/18 12:00:33;;;;;;;;;7.50;7.00;;;;;34.60;24.55;100976.06;5018879;28;46169;-75
2022/06/18 12:03:20;;;;;;;;;7.25;7.25;;;;;34.62;24.09;100968.34;5019760;28;45409;-73
2022/06/18 12:05:51;;;;;;;;;7.75;6.00;;;;;34.69;24.79;100967.25;5021722;28;45522;-78
2022/06/18 12:08:22;;;;;;;;;7.75;6.75;;;;;34.69;24.71;100961.66;5021685;28;45318;-77
2022/06/18 12:10:49;;;;;;;;;14.25;8.75;;;;;34.80;24.56;100962.91;5003883;28;46758;-76
2022/06/18 12:13:24;;;;;;;;;8.75;7.00;;;;;34.86;23.72;100953.66;5023545;28;45411;-73
2022/06/18 12:16:10;;;;;;;;;9.75;7.75;;;;;34.94;24.41;100953.41;5017399;28;45453;-74
2022/06/18 12:18:41;;;;;;;;;13.50;8.75;;;;;34.99;24.61;100950.78;5014225;28;45521;-78
2022/06/18 12:21:36;;;;;;;;;11.25;9.00;;;;;35.03;24.04;100957.63;5016411;28;46110;-74
2022/06/18 12:24:38;;;;;;;;;9.75;8.00;;;;;35.06;24.13;100948.78;5016286;28;45568;-75
2022/06/18 12:27:26;;;;;;;;;10.00;8.00;;;;;35.10;24.62;100940.84;5021526;28;45282;-75
2022/06/18 12:29:54;;;;;;;;;11.25;9.50;;;;;35.10;25.11;100932.47;5022665;28;45455;-77
2022/06/18 12:32:42;;;;;;;;;10.75;8.50;;;;;35.11;25.22;100934.19;5025903;28;45486;-78
2022/06/18 12:35:16;;;;;;;;;11.00;8.25;;;;;35.16;25.16;100928.78;5024665;28;45531;-76
2022/06/18 12:37:49;;;;;;;;;10.00;8.50;;;;;35.15;24.86;100919.56;5022926;28;45411;-72
2022/06/18 12:40:33;;;;;;;;;10.25;10.00;;;;;35.13;25.32;100893.84;5008278;28;46340;-73
2022/06/18 12:43:12;;;;;;;;;9.00;7.75;;;;;35.22;25.62;100903.63;4998497;28;47226;-75
2022/06/18 12:45:43;;;;;;;;;9.00;8.00;;;;;35.25;25.56;100906.00;5016105;28;45370;-77
2022/06/18 12:48:26;;;;;;;;;8.50;8.50;;;;;35.37;25.21;100906.13;5016561;28;45823;-78
2022/06/18 12:51:06;;;;;;;;;10.00;10.00;;;;;35.32;25.40;100883.63;4997525;28;47574;-76
2022/06/18 12:53:34;;;;;;;;;11.25;9.00;;;;;35.48;25.66;100898.91;5015793;28;46237;-75
2022/06/18 12:56:36;;;;;;;;;10.25;10.25;;;;;35.50;25.60;100878.09;5016211;28;45380;-75
2022/06/18 12:59:16;;;;;;;;;13.00;8.00;;;;;35.60;25.23;100872.84;5008200;28;45388;-76
2022/06/18 13:02:11;;;;;;;;;14.00;10.75;;;;;35.72;25.26;100872.13;5015728;28;45569;-77
2022/06/18 13:05:08;;;;;;;;;8.50;8.50;;;;;35.73;24.95;100876.59;5015814;28;45501;-76
2022/06/18 13:07:55;;;;;;;;;11.00;11.00;;;;;35.76;25.50;100862.19;4997878;28;45427;-74
2022/06/18 13:10:38;;;;;;;;;9.00;9.00;;;;;35.83;26.30;100863.78;5015978;28;45494;-78
2022/06/18 13:13:10;;;;;;;;;9.25;9.00;;;;;35.97;25.80;100853.34;5016329;28;45382;-76
2022/06/18 13:15:50;;;;;;;;;9.50;7.50;;;;;36.07;25.44;100852.78;5014792;28;46040;-74
2022/06/18 13:18:22;;;;;;;;;10.50;9.25;;;;;36.12;25.82;100848.19;5014085;28;45707;-75
2022/06/18 13:20:54;;;;;;;;;10.75;10.25;;;;;36.12;26.26;100831.44;5014399;28;45588;-74
2022/06/18 13:29:20;;;;;;;;;10.00;8.50;;;;;36.36;25.66;100824.91;5000386;28;45554;-75
2022/06/18 13:31:51;;;;;;;;;13.00;10.25;;;;;36.43;25.67;100810.81;5012174;28;45722;-73
2022/06/18 13:34:23;;;;;;;;;10.75;9.75;;;;;36.49;25.90;100814.63;4996670;28;46416;-73
2022/06/18 13:37:25;;;;;;;;;13.00;11.50;;;;;36.58;25.76;100811.22;5028833;28;45514;-77
2022/06/18 13:39:56;;;;;;;;;9.00;9.00;;;;;36.61;25.95;100810.75;5012847;28;45370;-76
2022/06/18 13:42:24;;;;;;;;;9.75;8.00;;;;;36.59;25.99;100798.97;5013600;28;45374;-78
2022/06/18 13:45:20;;;;;;;;;11.00;9.00;;;;;36.61;25.20;100795.94;5013534;28;45577;-76
2022/06/18 13:47:50;;;;;;;;;13.25;10.75;;;;;36.69;25.01;100782.50;4995715;28;47811;-75
2022/06/18 13:50:20;;;;;;;;;11.25;10.25;;;;;36.75;25.41;100766.69;5007846;28;45432;-77
2022/06/18 13:52:47;;;;;;;;;9.50;9.50;;;;;36.87;25.35;100778.75;5009676;28;45420;-75
2022/06/18 13:55:35;;;;;;;;;7.50;7.50;;;;;36.90;25.16;100755.91;5013530;28;45320;-74
2022/06/18 13:58:02;;;;;;;;;11.00;9.75;;;;;37.00;24.35;100753.38;5013341;28;46213;-75
2022/06/18 14:00:30;;;;;;;;;10.00;10.00;;;;;36.99;24.94;100739.63;5013471;28;45519;-75
2022/06/18 14:03:05;;;;;;;;;13.75;10.75;;;;;37.08;24.72;100743.75;5013598;28;45509;-76
2022/06/18 14:05:56;;;;;;;;;10.00;9.50;;;;;37.13;23.86;100750.34;5012838;28;46425;-73
2022/06/18 14:08:36;;;;;;;;;10.50;9.00;;;;;37.15;24.11;100733.31;4984493;28;47480;-75
2022/06/18 14:11:07;;;;;;;;;9.75;8.00;;;;;37.29;24.16;100719.91;5013851;28;45517;-77
2022/06/18 14:13:47;;;;;;;;;10.25;9.25;;;;;37.41;24.20;100723.56;5013705;28;45435;-78
2022/06/18 14:16:25;;;;;;;;;7.00;6.00;;;;;37.47;23.57;100715.00;5013833;28;45337;-77
2022/06/18 14:18:50;;;;;;;;;9.50;8.75;;;;;37.60;24.21;100722.28;5013223;28;45587;-77
2022/06/18 14:21:25;;;;;;;;;9.50;9.50;;;;;37.68;23.74;100713.53;4995417;28;45524;-78
2022/06/18 14:23:56;;;;;;;;;14.25;9.25;;;;;37.74;23.93;100712.53;5013253;28;45387;-75
2022/06/18 14:26:21;;;;;;;;;14.75;11.00;;;;;37.69;24.03;100701.22;4996691;28;45448;-73
2022/06/18 14:28:50;;;;;;;;;9.00;6.00;;;;;37.72;24.27;100705.47;5013468;28;46242;-75
2022/06/18 14:31:18;;;;;;;;;10.25;8.75;;;;;37.72;24.44;100700.72;5019187;28;45368;-77
2022/06/18 14:34:01;;;;;;;;;12.50;11.00;;;;;37.79;25.00;100692.16;5013324;28;45328;-79
2022/06/18 14:36:34;;;;;;;;;12.00;9.50;;;;;37.81;23.76;100698.38;5011365;28;46374;-78
2022/06/18 14:39:03;;;;;;;;;9.00;9.00;;;;;37.83;23.46;100694.22;5009397;28;45411;-73
2022/06/18 14:41:35;;;;;;;;;11.75;10.25;;;;;37.88;23.03;100682.25;5011407;28;45494;-75
2022/06/18 14:44:23;;;;;;;;;9.75;8.00;;;;;37.94;23.56;100670.06;5013129;28;45372;-76
2022/06/18 14:47:06;;;;;;;;;9.50;8.00;;;;;37.95;23.61;100666.16;5029759;28;45405;-77
2022/06/18 14:49:44;;;;;;;;;11.00;11.00;;;;;37.93;23.51;100654.38;5014188;28;45472;-71
2022/06/18 14:52:12;;;;;;;;;8.00;8.00;;;;;37.98;23.07;100645.22;5014439;28;45341;-74
2022/06/18 14:55:00;;;;;;;;;10.00;8.25;;;;;38.04;23.26;100649.78;4996220;28;45497;-73
2022/06/18 14:58:00;;;;;;;;;9.00;7.25;;;;;38.11;22.51;100636.53;5014850;28;45354;-74
2022/06/18 15:00:33;;;;;;;;;7.50;6.25;;;;;38.22;22.09;100628.03;4984030;28;45502;-72
2022/06/18 15:03:11;;;;;;;;;8.75;7.25;;;;;38.24;22.03;100624.97;5027062;28;45498;-74
2022/06/18 15:05:40;;;;;;;;;10.25;9.00;;;;;38.30;22.31;100621.16;4999488;28;45431;-78
2022/06/18 15:08:14;;;;;;;;;9.75;9.75;;;;;38.33;23.91;100614.19;5007744;28;45894;-75
2022/06/18 15:10:52;;;;;;;;;8.50;7.75;;;;;37.82;25.62;100608.56;5011884;28;45582;-78
2022/06/18 15:13:17;;;;;;;;;12.25;11.00;;;;;37.20;24.67;100603.97;4993580;28;45542;-75
2022/06/18 15:21:08;;;;;;;;;13.00;11.00;;;;;36.63;25.18;100581.44;5013434;28;46144;-75
2022/06/18 15:23:47;;;;;;;;;8.50;8.00;;;;;36.27;27.50;100557.44;5012670;28;45435;-75
2022/06/18 15:26:17;;;;;;;;;11.25;10.00;;;;;36.12;28.29;100577.44;5014172;28;45426;-75
2022/06/18 15:28:45;;;;;;;;;10.00;10.00;;;;;35.87;28.80;100562.84;5013814;28;45320;-75
2022/06/18 15:31:35;;;;;;;;;12.75;9.75;;;;;35.67;29.10;100558.41;5013402;28;46443;-75
2022/06/18 15:34:21;;;;;;;;;11.00;8.00;;;;;35.62;27.60;100565.81;5013883;28;45378;-75
2022/06/18 15:37:00;;;;;;;;;9.00;8.00;;;;;35.76;28.96;100546.94;5015370;28;45450;-74
2022/06/18 15:39:25;;;;;;;;;11.00;9.75;;;;;35.85;29.35;100532.41;5013215;28;45411;-75
2022/06/18 15:41:51;;;;;;;;;12.50;9.25;;;;;35.90;27.17;100526.94;5013939;28;45466;-75
2022/06/18 15:44:23;;;;;;;;;11.50;10.00;;;;;35.86;28.65;100531.31;5016997;28;45194;-75
2022/06/18 15:46:54;;;;;;;;;13.00;11.00;;;;;35.66;28.75;100522.38;5016189;28;45413;-74
2022/06/18 15:49:43;;;;;;;;;13.25;8.75;;;;;35.55;28.87;100521.28;5017071;28;45350;-75
2022/06/18 15:52:27;;;;;;;;;9.25;9.25;;;;;35.40;28.84;100518.09;5017156;28;46198;-75
2022/06/18 15:54:57;;;;;;;;;12.75;10.25;;;;;35.35;29.37;100511.53;5016797;28;45319;-74
2022/06/18 15:57:27;;;;;;;;;11.50;9.00;;;;;35.21;28.58;100489.41;5016817;28;45419;-73
2022/06/18 15:59:59;;;;;;;;;10.75;8.75;;;;;35.13;27.58;100492.50;5016959;28;45399;-74
2022/06/18 16:02:28;;;;;;;;;9.00;9.00;;;;;35.15;28.15;100484.78;5016821;28;45285;-74
2022/06/18 16:04:54;;;;;;;;;12.50;10.25;;;;;35.48;29.38;100480.63;5017129;28;45479;-75
2022/06/18 16:07:19;;;;;;;;;10.50;9.25;;;;;35.62;27.78;100469.03;5016732;28;45461;-74
2022/06/18 16:10:05;;;;;;;;;11.00;9.50;;;;;35.73;28.50;100461.78;5015212;28;45895;-74
2022/06/18 16:12:32;;;;;;;;;12.50;9.50;;;;;35.85;28.86;100465.44;5016816;28;45350;-74
2022/06/18 16:15:02;;;;;;;;;11.50;11.00;;;;;36.03;26.64;100459.72;5016899;28;45425;-75
2022/06/18 16:17:31;;;;;;;;;8.00;8.00;;;;;36.25;25.91;100461.91;5020854;28;45324;-73
2022/06/18 16:19:59;;;;;;;;;8.25;8.25;;;;;36.32;27.99;100460.69;5025670;28;45394;-75
2022/06/18 16:22:36;;;;;;;;;12.75;10.75;;;;;36.26;25.94;100450.50;5016605;28;45307;-77
2022/06/18 16:25:15;;;;;;;;;7.50;7.25;;;;;36.21;26.63;100428.06;5016733;28;45658;-75
2022/06/18 16:27:41;;;;;;;;;9.00;9.00;;;;;36.52;25.31;100442.66;5017156;28;45264;-75
2022/06/18 16:30:12;;;;;;;;;12.75;8.25;;;;;36.95;24.07;100440.22;5016470;28;45336;-75
2022/06/18 16:32:45;;;;;;;;;8.00;8.00;;;;;37.05;26.60;100431.16;5023490;28;45383;-75
2022/06/18 16:35:19;;;;;;;;;11.50;8.25;;;;;36.90;27.26;100428.09;5017676;28;45384;-82